< < Back
Terminal Aerodrome Forecast


Current Version              Previous Versions:   1  2  3  4  5  6  7  8  9  

Terminal Aerodrome Forecast

413
FTUS42 KGSP 272342
TAFGSP
TAF
KGSP 272342Z 2800/2824 11004KT P6SM SCT080 BKN250
     FM281500 07005KT P6SM SCT210=



Latest METAR

467
SAUS70 KWBC 281100 RRH
MTRGSP
METAR KGSP 281053Z 00000KT 10SM CLR 09/03 A2995 RMK AO2 SLP137
T00940028


USA.gov is the U.S. government's official web portal to all federal, state and local government web resources and services.